sensor_id;sensor_type;location;lat;lon;timestamp;pressure;altitude;pressure_sealevel;temperature;humidity
64602;BME280;51013;42.630;23.192;2022-11-23T00:02:00;91106.31;;;6.74;100.00
64602;BME280;51013;42.630;23.192;2022-11-23T00:04:27;91053.84;;;6.24;100.00
64602;BME280;51013;42.630;23.192;2022-11-23T00:06:55;91105.94;;;6.56;100.00
64602;BME280;51013;42.630;23.192;2022-11-23T00:09:23;91116.34;;;6.72;100.00
64602;BME280;51013;42.630;23.192;2022-11-23T00:11:50;91086.25;;;6.58;100.00
64602;BME280;51013;42.630;23.192;2022-11-23T00:14:17;91082.97;;;6.61;100.00
64602;BME280;51013;42.630;23.192;2022-11-23T00:16:44;90941.78;;;5.57;100.00
64602;BME280;51013;42.630;23.192;2022-11-23T00:19:11;91113.13;;;6.78;100.00
64602;BME280;51013;42.630;23.192;2022-11-23T00:21:38;90954.34;;;5.87;100.00
64602;BME280;51013;42.630;23.192;2022-11-23T00:24:08;90981.09;;;5.99;100.00
64602;BME280;51013;42.630;23.192;2022-11-23T00:26:36;91093.78;;;6.79;100.00
64602;BME280;51013;42.630;23.192;2022-11-23T00:29:03;90882.38;;;5.27;100.00
64602;BME280;51013;42.630;23.192;2022-11-23T00:31:30;91100.41;;;6.77;100.00
64602;BME280;51013;42.630;23.192;2022-11-23T00:33:58;90944.72;;;5.71;100.00
64602;BME280;51013;42.630;23.192;2022-11-23T00:36:25;91070.59;;;6.58;100.00
64602;BME280;51013;42.630;23.192;2022-11-23T00:38:53;91105.03;;;6.84;100.00
64602;BME280;51013;42.630;23.192;2022-11-23T00:41:25;91090.63;;;6.90;100.00
64602;BME280;51013;42.630;23.192;2022-11-23T00:43:52;91088.19;;;6.81;100.00
64602;BME280;51013;42.630;23.192;2022-11-23T00:46:20;91048.56;;;6.56;100.00
64602;BME280;51013;42.630;23.192;2022-11-23T00:48:49;91077.75;;;6.81;100.00
64602;BME280;51013;42.630;23.192;2022-11-23T00:51:19;91100.63;;;6.68;100.00
64602;BME280;51013;42.630;23.192;2022-11-23T00:53:46;91088.25;;;6.65;100.00
64602;BME280;51013;42.630;23.192;2022-11-23T00:56:13;91057.25;;;6.44;100.00
64602;BME280;51013;42.630;23.192;2022-11-23T00:58:42;91102.56;;;6.71;100.00
64602;BME280;51013;42.630;23.192;2022-11-23T01:01:15;90973.59;;;5.98;100.00
64602;BME280;51013;42.630;23.192;2022-11-23T01:03:44;91020.72;;;6.44;100.00
64602;BME280;51013;42.630;23.192;2022-11-23T01:06:14;90915.97;;;5.68;100.00
64602;BME280;51013;42.630;23.192;2022-11-23T01:08:41;91040.97;;;6.51;100.00
64602;BME280;51013;42.630;23.192;2022-11-23T01:11:10;91087.59;;;6.88;100.00
64602;BME280;51013;42.630;23.192;2022-11-23T01:13:38;91071.56;;;6.89;100.00
64602;BME280;51013;42.630;23.192;2022-11-23T01:16:09;91075.00;;;6.74;100.00
64602;BME280;51013;42.630;23.192;2022-11-23T01:18:38;90847.34;;;5.25;100.00
64602;BME280;51013;42.630;23.192;2022-11-23T01:21:05;91025.03;;;6.36;100.00
64602;BME280;51013;42.630;23.192;2022-11-23T01:23:32;90988.25;;;6.22;100.00
64602;BME280;51013;42.630;23.192;2022-11-23T01:26:04;90914.44;;;5.82;100.00
64602;BME280;51013;42.630;23.192;2022-11-23T01:28:31;91060.28;;;6.85;100.00
64602;BME280;51013;42.630;23.192;2022-11-23T01:31:03;90849.66;;;5.46;100.00
64602;BME280;51013;42.630;23.192;2022-11-23T01:33:33;91019.59;;;6.61;100.00
64602;BME280;51013;42.630;23.192;2022-11-23T01:36:01;90945.63;;;5.95;100.00
64602;BME280;51013;42.630;23.192;2022-11-23T01:38:33;91065.94;;;6.87;100.00
64602;BME280;51013;42.630;23.192;2022-11-23T01:41:01;91074.25;;;6.93;100.00
64602;BME280;51013;42.630;23.192;2022-11-23T01:43:29;91073.41;;;6.89;100.00
64602;BME280;51013;42.630;23.192;2022-11-23T01:45:57;91034.47;;;6.60;100.00
64602;BME280;51013;42.630;23.192;2022-11-23T01:48:27;91015.09;;;6.42;100.00
64602;BME280;51013;42.630;23.192;2022-11-23T01:50:58;91006.19;;;6.43;100.00
64602;BME280;51013;42.630;23.192;2022-11-23T01:53:26;91073.00;;;6.87;100.00
64602;BME280;51013;42.630;23.192;2022-11-23T01:55:57;91060.16;;;6.78;100.00
64602;BME280;51013;42.630;23.192;2022-11-23T01:58:26;91016.34;;;6.48;100.00
64602;BME280;51013;42.630;23.192;2022-11-23T02:00:55;91000.31;;;6.30;100.00
64602;BME280;51013;42.630;23.192;2022-11-23T02:03:22;91057.97;;;6.80;100.00
64602;BME280;51013;42.630;23.192;2022-11-23T02:05:51;91049.25;;;6.72;100.00
64602;BME280;51013;42.630;23.192;2022-11-23T02:08:25;91044.19;;;6.79;100.00
64602;BME280;51013;42.630;23.192;2022-11-23T02:10:52;91030.06;;;6.65;100.00
64602;BME280;51013;42.630;23.192;2022-11-23T02:13:21;90886.16;;;5.65;100.00
64602;BME280;51013;42.630;23.192;2022-11-23T02:15:49;90990.00;;;6.53;100.00
64602;BME280;51013;42.630;23.192;2022-11-23T02:18:20;91021.78;;;6.78;100.00
64602;BME280;51013;42.630;23.192;2022-11-23T02:20:49;91047.06;;;6.94;100.00
64602;BME280;51013;42.630;23.192;2022-11-23T02:23:28;91047.47;;;6.96;100.00
64602;BME280;51013;42.630;23.192;2022-11-23T02:26:03;91054.09;;;6.93;100.00
64602;BME280;51013;42.630;23.192;2022-11-23T02:28:35;91037.63;;;6.89;100.00
64602;BME280;51013;42.630;23.192;2022-11-23T02:31:03;91038.41;;;6.90;100.00
64602;BME280;51013;42.630;23.192;2022-11-23T02:33:30;91034.44;;;6.99;100.00
64602;BME280;51013;42.630;23.192;2022-11-23T02:35:58;90926.06;;;6.24;100.00
64602;BME280;51013;42.630;23.192;2022-11-23T02:38:27;91032.41;;;7.09;100.00
64602;BME280;51013;42.630;23.192;2022-11-23T02:40:57;90989.38;;;6.79;100.00
64602;BME280;51013;42.630;23.192;2022-11-23T02:43:25;91026.00;;;7.06;100.00
64602;BME280;51013;42.630;23.192;2022-11-23T02:45:54;90973.69;;;6.79;100.00
64602;BME280;51013;42.630;23.192;2022-11-23T02:48:22;90886.75;;;6.13;100.00
64602;BME280;51013;42.630;23.192;2022-11-23T02:50:49;90878.94;;;6.13;100.00
64602;BME280;51013;42.630;23.192;2022-11-23T02:53:16;90999.50;;;7.04;100.00
64602;BME280;51013;42.630;23.192;2022-11-23T02:55:44;90927.00;;;6.55;100.00
64602;BME280;51013;42.630;23.192;2022-11-23T02:58:11;90989.78;;;7.05;100.00
64602;BME280;51013;42.630;23.192;2022-11-23T03:00:40;90982.38;;;7.07;100.00
64602;BME280;51013;42.630;23.192;2022-11-23T03:03:07;90836.44;;;5.93;100.00
64602;BME280;51013;42.630;23.192;2022-11-23T03:05:34;90985.47;;;6.93;100.00
64602;BME280;51013;42.630;23.192;2022-11-23T03:08:00;90986.22;;;6.93;100.00
64602;BME280;51013;42.630;23.192;2022-11-23T03:10:27;90981.72;;;6.90;100.00
64602;BME280;51013;42.630;23.192;2022-11-23T03:12:55;90976.00;;;6.85;100.00
64602;BME280;51013;42.630;23.192;2022-11-23T03:15:22;90865.00;;;6.06;100.00
64602;BME280;51013;42.630;23.192;2022-11-23T03:17:51;90981.94;;;6.81;100.00
64602;BME280;51013;42.630;23.192;2022-11-23T03:20:18;90800.47;;;5.60;100.00
64602;BME280;51013;42.630;23.192;2022-11-23T03:22:45;90925.09;;;6.32;100.00
64602;BME280;51013;42.630;23.192;2022-11-23T03:25:12;90979.47;;;6.69;100.00
64602;BME280;51013;42.630;23.192;2022-11-23T03:27:39;90985.44;;;6.70;100.00
64602;BME280;51013;42.630;23.192;2022-11-23T03:30:07;90989.03;;;6.61;100.00
64602;BME280;51013;42.630;23.192;2022-11-23T03:32:35;90984.63;;;6.66;100.00
64602;BME280;51013;42.630;23.192;2022-11-23T03:35:04;90969.72;;;6.47;100.00
64602;BME280;51013;42.630;23.192;2022-11-23T03:37:32;90815.31;;;5.40;100.00
64602;BME280;51013;42.630;23.192;2022-11-23T03:40:00;90962.84;;;6.58;100.00
64602;BME280;51013;42.630;23.192;2022-11-23T03:42:30;90942.47;;;6.44;100.00
64602;BME280;51013;42.630;23.192;2022-11-23T03:44:56;90813.75;;;5.55;100.00
64602;BME280;51013;42.630;23.192;2022-11-23T03:47:23;90963.53;;;6.55;100.00
64602;BME280;51013;42.630;23.192;2022-11-23T03:49:50;90959.34;;;6.50;100.00
64602;BME280;51013;42.630;23.192;2022-11-23T03:52:19;90927.94;;;6.24;100.00
64602;BME280;51013;42.630;23.192;2022-11-23T03:54:45;90797.34;;;5.35;100.00
64602;BME280;51013;42.630;23.192;2022-11-23T03:57:12;90948.84;;;6.47;100.00
64602;BME280;51013;42.630;23.192;2022-11-23T03:59:39;90635.19;;;4.40;100.00
64602;BME280;51013;42.630;23.192;2022-11-23T04:02:06;90919.47;;;6.69;100.00
64602;BME280;51013;42.630;23.192;2022-11-23T04:04:34;90806.34;;;6.15;100.00
64602;BME280;51013;42.630;23.192;2022-11-23T04:07:01;90803.06;;;6.18;100.00
64602;BME280;51013;42.630;23.192;2022-11-23T04:09:31;90968.97;;;7.54;100.00
64602;BME280;51013;42.630;23.192;2022-11-23T04:11:59;90949.88;;;7.50;100.00
64602;BME280;51013;42.630;23.192;2022-11-23T04:14:26;90777.47;;;6.51;100.00
64602;BME280;51013;42.630;23.192;2022-11-23T04:16:52;90854.75;;;7.05;100.00
64602;BME280;51013;42.630;23.192;2022-11-23T04:19:19;90957.81;;;7.84;100.00
64602;BME280;51013;42.630;23.192;2022-11-23T04:21:46;90819.59;;;6.99;100.00
64602;BME280;51013;42.630;23.192;2022-11-23T04:24:13;90882.16;;;7.41;100.00
64602;BME280;51013;42.630;23.192;2022-11-23T04:26:42;90960.28;;;8.00;100.00
64602;BME280;51013;42.630;23.192;2022-11-23T04:29:09;90945.13;;;7.86;97.65
64602;BME280;51013;42.630;23.192;2022-11-23T04:31:35;90946.59;;;7.83;98.02
64602;BME280;51013;42.630;23.192;2022-11-23T04:34:02;90918.75;;;7.68;95.64
64602;BME280;51013;42.630;23.192;2022-11-23T04:36:31;90772.50;;;6.65;96.22
64602;BME280;51013;42.630;23.192;2022-11-23T04:39:01;90946.31;;;7.89;97.30
64602;BME280;51013;42.630;23.192;2022-11-23T04:41:29;90939.16;;;7.86;96.40
64602;BME280;51013;42.630;23.192;2022-11-23T04:43:58;90808.34;;;6.95;96.27
64602;BME280;51013;42.630;23.192;2022-11-23T04:46:25;90988.53;;;8.17;97.48
64602;BME280;51013;42.630;23.192;2022-11-23T04:48:51;90871.09;;;7.52;97.58
64602;BME280;51013;42.630;23.192;2022-11-23T04:51:18;90953.28;;;8.08;98.03
64602;BME280;51013;42.630;23.192;2022-11-23T04:53:46;90884.22;;;7.55;99.17
64602;BME280;51013;42.630;23.192;2022-11-23T04:56:13;90903.44;;;7.67;98.41
64602;BME280;51013;42.630;23.192;2022-11-23T04:58:39;90993.16;;;8.28;96.61
64602;BME280;51013;42.630;23.192;2022-11-23T05:01:08;90997.66;;;8.31;95.95
64602;BME280;51013;42.630;23.192;2022-11-23T05:03:35;90972.84;;;8.21;95.54
64602;BME280;51013;42.630;23.192;2022-11-23T05:06:05;90989.47;;;8.32;95.68
64602;BME280;51013;42.630;23.192;2022-11-23T05:08:32;90978.19;;;8.28;95.01
64602;BME280;51013;42.630;23.192;2022-11-23T05:11:00;90928.75;;;7.89;93.91
64602;BME280;51013;42.630;23.192;2022-11-23T05:13:27;90989.81;;;8.31;94.67
64602;BME280;51013;42.630;23.192;2022-11-23T05:15:54;90995.38;;;8.29;95.62
64602;BME280;51013;42.630;23.192;2022-11-23T05:21:41;90929.75;;;7.81;91.59
64602;BME280;51013;42.630;23.192;2022-11-23T05:24:21;90863.72;;;7.57;92.01
64602;BME280;51013;42.630;23.192;2022-11-23T05:26:49;90773.34;;;6.96;93.54
64602;BME280;51013;42.630;23.192;2022-11-23T05:29:16;90988.00;;;8.35;93.94
64602;BME280;51013;42.630;23.192;2022-11-23T05:31:56;90872.31;;;7.58;94.82
64602;BME280;51013;42.630;23.192;2022-11-23T05:34:23;90787.59;;;7.02;95.72
64602;BME280;51013;42.630;23.192;2022-11-23T05:36:51;90801.50;;;7.10;96.06
64602;BME280;51013;42.630;23.192;2022-11-23T05:39:18;90720.91;;;6.55;96.23
64602;BME280;51013;42.630;23.192;2022-11-23T05:41:46;90916.13;;;7.95;97.61
64602;BME280;51013;42.630;23.192;2022-11-23T05:44:12;90977.91;;;8.37;98.66
64602;BME280;51013;42.630;23.192;2022-11-23T05:46:39;90939.53;;;8.14;99.16
64602;BME280;51013;42.630;23.192;2022-11-23T05:49:06;90971.19;;;8.36;99.43
64602;BME280;51013;42.630;23.192;2022-11-23T05:51:34;90916.47;;;7.93;98.17
64602;BME280;51013;42.630;23.192;2022-11-23T05:54:05;90938.06;;;8.17;98.04
64602;BME280;51013;42.630;23.192;2022-11-23T05:56:31;90817.56;;;7.38;96.21
64602;BME280;51013;42.630;23.192;2022-11-23T05:58:59;90973.22;;;8.46;95.20
64602;BME280;51013;42.630;23.192;2022-11-23T06:01:26;90929.28;;;8.32;95.50
64602;BME280;51013;42.630;23.192;2022-11-23T06:03:53;90910.00;;;8.14;94.62
64602;BME280;51013;42.630;23.192;2022-11-23T06:06:20;90972.19;;;8.54;94.20
64602;BME280;51013;42.630;23.192;2022-11-23T06:08:47;90925.44;;;8.22;91.17
64602;BME280;51013;42.630;23.192;2022-11-23T06:11:15;90896.41;;;8.01;91.61
64602;BME280;51013;42.630;23.192;2022-11-23T06:13:42;90977.13;;;8.63;93.50
64602;BME280;51013;42.630;23.192;2022-11-23T06:16:12;90867.16;;;7.92;93.38
64602;BME280;51013;42.630;23.192;2022-11-23T06:18:39;90984.34;;;8.73;93.99
64602;BME280;51013;42.630;23.192;2022-11-23T06:21:06;90896.09;;;8.06;92.88
64602;BME280;51013;42.630;23.192;2022-11-23T06:23:33;90809.47;;;7.47;93.95
64602;BME280;51013;42.630;23.192;2022-11-23T06:26:01;90868.28;;;7.91;93.69
64602;BME280;51013;42.630;23.192;2022-11-23T06:28:30;90879.19;;;8.00;94.79
64602;BME280;51013;42.630;23.192;2022-11-23T06:31:01;90827.81;;;7.51;92.66
64602;BME280;51013;42.630;23.192;2022-11-23T06:33:28;91014.19;;;8.65;92.38
64602;BME280;51013;42.630;23.192;2022-11-23T06:35:56;91014.34;;;8.46;93.88
64602;BME280;51013;42.630;23.192;2022-11-23T06:38:23;90986.66;;;8.18;94.01
64602;BME280;51013;42.630;23.192;2022-11-23T06:40:50;91016.34;;;8.02;96.12
64602;BME280;51013;42.630;23.192;2022-11-23T06:43:17;91007.41;;;8.03;97.62
64602;BME280;51013;42.630;23.192;2022-11-23T06:45:45;90892.81;;;7.29;98.44
64602;BME280;51013;42.630;23.192;2022-11-23T06:48:12;90977.25;;;7.87;99.56
64602;BME280;51013;42.630;23.192;2022-11-23T06:50:39;90989.50;;;8.06;100.00
64602;BME280;51013;42.630;23.192;2022-11-23T06:53:08;90990.47;;;8.24;99.96
64602;BME280;51013;42.630;23.192;2022-11-23T06:55:37;90680.41;;;6.38;98.82
64602;BME280;51013;42.630;23.192;2022-11-23T06:58:04;90934.28;;;8.14;99.76
64602;BME280;51013;42.630;23.192;2022-11-23T07:00:32;90990.91;;;8.56;99.44
64602;BME280;51013;42.630;23.192;2022-11-23T07:03:01;90952.56;;;8.41;99.57
64602;BME280;51013;42.630;23.192;2022-11-23T07:05:30;90821.91;;;7.57;98.24
64602;BME280;51013;42.630;23.192;2022-11-23T07:07:57;90791.56;;;7.49;96.00
64602;BME280;51013;42.630;23.192;2022-11-23T07:10:24;90996.91;;;8.91;96.74
64602;BME280;51013;42.630;23.192;2022-11-23T07:12:51;91010.06;;;8.98;94.46
64602;BME280;51013;42.630;23.192;2022-11-23T07:15:18;90754.38;;;7.29;93.56
64602;BME280;51013;42.630;23.192;2022-11-23T07:17:45;90798.59;;;7.45;94.14
64602;BME280;51013;42.630;23.192;2022-11-23T07:20:14;90835.50;;;7.70;94.44
64602;BME280;51013;42.630;23.192;2022-11-23T07:22:41;91021.81;;;9.11;93.96
64602;BME280;51013;42.630;23.192;2022-11-23T07:25:08;91021.13;;;9.18;94.86
64602;BME280;51013;42.630;23.192;2022-11-23T07:27:36;90975.56;;;8.89;94.43
64602;BME280;51013;42.630;23.192;2022-11-23T07:30:04;90728.78;;;7.12;94.62
64602;BME280;51013;42.630;23.192;2022-11-23T07:32:32;90970.97;;;8.78;96.00
64602;BME280;51013;42.630;23.192;2022-11-23T07:34:59;90817.59;;;7.69;95.91
64602;BME280;51013;42.630;23.192;2022-11-23T07:37:27;91029.13;;;9.29;97.08
64602;BME280;51013;42.630;23.192;2022-11-23T07:39:54;91027.19;;;9.26;96.12
64602;BME280;51013;42.630;23.192;2022-11-23T07:42:22;91018.63;;;9.32;95.38
64602;BME280;51013;42.630;23.192;2022-11-23T07:44:49;90986.94;;;9.03;95.98
64602;BME280;51013;42.630;23.192;2022-11-23T07:47:15;90972.09;;;8.81;93.11
64602;BME280;51013;42.630;23.192;2022-11-23T07:49:43;91027.25;;;9.29;92.76
64602;BME280;51013;42.630;23.192;2022-11-23T07:52:10;91033.25;;;9.33;90.38
64602;BME280;51013;42.630;23.192;2022-11-23T07:54:39;90847.34;;;8.25;89.05
64602;BME280;51013;42.630;23.192;2022-11-23T07:57:06;91021.34;;;9.39;87.33
64602;BME280;51013;42.630;23.192;2022-11-23T07:59:34;90987.78;;;9.15;86.54
64602;BME280;51013;42.630;23.192;2022-11-23T08:02:01;90840.22;;;8.25;85.56
64602;BME280;51013;42.630;23.192;2022-11-23T08:04:27;90918.63;;;8.82;85.88
64602;BME280;51013;42.630;23.192;2022-11-23T08:06:55;90956.38;;;9.18;83.98
64602;BME280;51013;42.630;23.192;2022-11-23T08:09:22;90766.00;;;7.99;84.81
64602;BME280;51013;42.630;23.192;2022-11-23T08:11:50;91012.22;;;9.67;84.95
64602;BME280;51013;42.630;23.192;2022-11-23T08:14:17;91009.63;;;9.71;83.32
64602;BME280;51013;42.630;23.192;2022-11-23T08:16:47;90980.91;;;9.40;83.69
64602;BME280;51013;42.630;23.192;2022-11-23T08:19:14;91014.47;;;9.69;84.40
64602;BME280;51013;42.630;23.192;2022-11-23T08:21:41;90912.75;;;8.96;85.53
64602;BME280;51013;42.630;23.192;2022-11-23T08:24:10;90945.69;;;9.38;85.73
64602;BME280;51013;42.630;23.192;2022-11-23T08:26:40;90944.91;;;9.34;86.92
64602;BME280;51013;42.630;23.192;2022-11-23T08:29:08;91025.47;;;9.85;86.50
64602;BME280;51013;42.630;23.192;2022-11-23T08:31:36;90905.50;;;9.19;85.74
64602;BME280;51013;42.630;23.192;2022-11-23T08:34:02;91018.09;;;10.01;84.95
64602;BME280;51013;42.630;23.192;2022-11-23T08:36:30;91018.16;;;10.12;85.51
64602;BME280;51013;42.630;23.192;2022-11-23T08:38:56;90994.56;;;10.12;84.28
64602;BME280;51013;42.630;23.192;2022-11-23T08:41:23;91016.72;;;10.18;84.96
64602;BME280;51013;42.630;23.192;2022-11-23T08:43:50;91007.81;;;10.30;85.12
64602;BME280;51013;42.630;23.192;2022-11-23T08:46:19;90952.03;;;9.89;83.61
64602;BME280;51013;42.630;23.192;2022-11-23T08:48:46;91002.66;;;10.45;84.10
64602;BME280;51013;42.630;23.192;2022-11-23T08:51:13;91023.22;;;10.39;82.72
64602;BME280;51013;42.630;23.192;2022-11-23T08:53:46;90912.63;;;9.74;83.51
64602;BME280;51013;42.630;23.192;2022-11-23T08:56:13;91033.38;;;10.40;83.66
64602;BME280;51013;42.630;23.192;2022-11-23T08:58:40;90886.94;;;9.42;83.99
64602;BME280;51013;42.630;23.192;2022-11-23T09:01:08;90917.16;;;9.77;85.19
64602;BME280;51013;42.630;23.192;2022-11-23T09:03:38;90901.69;;;9.61;84.36
64602;BME280;51013;42.630;23.192;2022-11-23T09:06:05;90967.09;;;9.99;84.53
64602;BME280;51013;42.630;23.192;2022-11-23T09:08:32;90968.25;;;10.05;84.96
64602;BME280;51013;42.630;23.192;2022-11-23T09:11:03;91018.81;;;10.50;86.04
64602;BME280;51013;42.630;23.192;2022-11-23T09:13:30;90937.50;;;9.98;85.13
64602;BME280;51013;42.630;23.192;2022-11-23T09:15:57;90963.59;;;10.32;84.75
64602;BME280;51013;42.630;23.192;2022-11-23T09:18:24;91014.44;;;10.87;85.35
64602;BME280;51013;42.630;23.192;2022-11-23T09:20:53;90784.00;;;9.46;82.69
64602;BME280;51013;42.630;23.192;2022-11-23T09:23:21;91011.88;;;11.05;82.56
64602;BME280;51013;42.630;23.192;2022-11-23T09:25:48;90832.19;;;9.96;81.05
64602;BME280;51013;42.630;23.192;2022-11-23T09:28:16;91004.03;;;11.22;81.40
64602;BME280;51013;42.630;23.192;2022-11-23T09:30:44;90892.75;;;10.43;79.54
64602;BME280;51013;42.630;23.192;2022-11-23T09:33:11;90998.00;;;11.15;78.09
64602;BME280;51013;42.630;23.192;2022-11-23T09:35:38;90979.63;;;11.11;79.88
64602;BME280;51013;42.630;23.192;2022-11-23T09:38:07;90953.34;;;11.15;80.02
64602;BME280;51013;42.630;23.192;2022-11-23T09:40:36;90960.13;;;11.19;77.22
64602;BME280;51013;42.630;23.192;2022-11-23T09:43:16;91000.72;;;11.47;76.95
64602;BME280;51013;42.630;23.192;2022-11-23T09:45:54;90990.94;;;11.55;77.06
64602;BME280;51013;42.630;23.192;2022-11-23T09:48:36;90894.38;;;10.87;74.93
64602;BME280;51013;42.630;23.192;2022-11-23T09:51:14;90883.06;;;10.65;75.53
64602;BME280;51013;42.630;23.192;2022-11-23T09:53:46;90761.75;;;10.02;74.29
64602;BME280;51013;42.630;23.192;2022-11-23T09:56:17;90925.56;;;11.21;73.68
64602;BME280;51013;42.630;23.192;2022-11-23T09:58:46;91007.88;;;11.82;70.71
64602;BME280;51013;42.630;23.192;2022-11-23T10:01:15;90812.53;;;10.56;72.18
64602;BME280;51013;42.630;23.192;2022-11-23T10:03:47;91015.44;;;11.98;71.81
64602;BME280;51013;42.630;23.192;2022-11-23T10:06:16;91006.38;;;12.10;70.06
64602;BME280;51013;42.630;23.192;2022-11-23T10:08:54;90697.66;;;10.03;67.54
64602;BME280;51013;42.630;23.192;2022-11-23T10:11:45;90884.25;;;11.29;70.00
64602;BME280;51013;42.630;23.192;2022-11-23T10:14:32;90862.47;;;11.21;68.73
64602;BME280;51013;42.630;23.192;2022-11-23T10:17:08;90884.63;;;11.52;67.60
64602;BME280;51013;42.630;23.192;2022-11-23T10:19:50;90995.44;;;12.51;67.59
64602;BME280;51013;42.630;23.192;2022-11-23T10:22:25;91005.91;;;12.66;66.75
64602;BME280;51013;42.630;23.192;2022-11-23T10:24:56;91003.28;;;12.69;66.54
64602;BME280;51013;42.630;23.192;2022-11-23T10:27:24;90998.00;;;12.69;67.41
64602;BME280;51013;42.630;23.192;2022-11-23T10:29:54;90908.63;;;12.12;64.36
64602;BME280;51013;42.630;23.192;2022-11-23T10:32:27;91005.81;;;12.98;67.21
64602;BME280;51013;42.630;23.192;2022-11-23T10:35:01;90985.78;;;13.08;64.18
64602;BME280;51013;42.630;23.192;2022-11-23T10:37:31;90933.69;;;12.59;62.28
64602;BME280;51013;42.630;23.192;2022-11-23T10:40:00;90994.72;;;13.32;65.05
64602;BME280;51013;42.630;23.192;2022-11-23T10:42:32;90946.59;;;13.13;63.86
64602;BME280;51013;42.630;23.192;2022-11-23T10:45:00;91007.44;;;13.55;62.32
64602;BME280;51013;42.630;23.192;2022-11-23T10:47:35;90919.19;;;12.96;62.58
64602;BME280;51013;42.630;23.192;2022-11-23T10:50:19;90952.16;;;13.30;62.50
64602;BME280;51013;42.630;23.192;2022-11-23T10:52:52;91000.88;;;13.74;59.89
64602;BME280;51013;42.630;23.192;2022-11-23T10:55:23;90970.59;;;13.37;60.99
64602;BME280;51013;42.630;23.192;2022-11-23T10:57:51;90867.41;;;12.65;61.23
64602;BME280;51013;42.630;23.192;2022-11-23T11:00:20;90871.13;;;12.74;60.94
64602;BME280;51013;42.630;23.192;2022-11-23T11:03:21;90986.34;;;13.51;61.54
64602;BME280;51013;42.630;23.192;2022-11-23T11:06:07;90891.41;;;12.85;63.35
64602;BME280;51013;42.630;23.192;2022-11-23T11:08:36;90990.56;;;13.38;61.48
64602;BME280;51013;42.630;23.192;2022-11-23T11:11:24;90730.28;;;11.35;63.82
64602;BME280;51013;42.630;23.192;2022-11-23T11:14:04;90953.56;;;12.75;63.82
64602;BME280;51013;42.630;23.192;2022-11-23T11:16:33;90991.91;;;12.87;63.44
64602;BME280;51013;42.630;23.192;2022-11-23T11:19:28;90664.38;;;10.50;63.89
64602;BME280;51013;42.630;23.192;2022-11-23T11:22:31;90860.91;;;11.85;66.06
64602;BME280;51013;42.630;23.192;2022-11-23T11:25:01;90868.03;;;12.06;66.31
64602;BME280;51013;42.630;23.192;2022-11-23T11:27:37;90881.50;;;12.18;61.71
64602;BME280;51013;42.630;23.192;2022-11-23T11:30:20;90768.53;;;11.61;60.56
64602;BME280;51013;42.630;23.192;2022-11-23T11:32:53;90973.31;;;13.22;59.27
64602;BME280;51013;42.630;23.192;2022-11-23T11:35:25;90967.59;;;13.35;57.21
64602;BME280;51013;42.630;23.192;2022-11-23T11:37:55;90952.81;;;13.48;55.76
64602;BME280;51013;42.630;23.192;2022-11-23T11:40:29;90919.44;;;13.20;54.13
64602;BME280;51013;42.630;23.192;2022-11-23T11:43:03;90967.84;;;13.55;54.58
64602;BME280;51013;42.630;23.192;2022-11-23T11:45:36;90677.59;;;11.63;55.49
64602;BME280;51013;42.630;23.192;2022-11-23T11:48:07;90971.56;;;13.65;53.92
64602;BME280;51013;42.630;23.192;2022-11-23T11:50:40;90831.69;;;12.60;51.95
64602;BME280;51013;42.630;23.192;2022-11-23T11:53:13;90966.13;;;13.82;54.44
64602;BME280;51013;42.630;23.192;2022-11-23T11:55:48;90976.31;;;13.84;52.81
64602;BME280;51013;42.630;23.192;2022-11-23T11:58:19;90909.75;;;13.62;51.98
64602;BME280;51013;42.630;23.192;2022-11-23T12:00:53;90888.41;;;13.46;53.12
64602;BME280;51013;42.630;23.192;2022-11-23T12:03:35;90962.50;;;14.11;52.92
64602;BME280;51013;42.630;23.192;2022-11-23T12:06:10;90913.06;;;13.73;54.39
64602;BME280;51013;42.630;23.192;2022-11-23T12:08:44;90722.44;;;12.19;53.25
64602;BME280;51013;42.630;23.192;2022-11-23T12:11:12;90970.94;;;13.42;55.79
64602;BME280;51013;42.630;23.192;2022-11-23T12:13:42;90935.41;;;12.91;57.94
64602;BME280;51013;42.630;23.192;2022-11-23T12:16:15;90936.50;;;13.01;58.18
64602;BME280;51013;42.630;23.192;2022-11-23T12:18:55;90891.81;;;12.79;60.75
64602;BME280;51013;42.630;23.192;2022-11-23T12:21:42;90985.34;;;13.31;56.79
64602;BME280;51013;42.630;23.192;2022-11-23T12:24:22;90967.03;;;12.95;57.47
64602;BME280;51013;42.630;23.192;2022-11-23T12:26:58;90941.53;;;12.74;58.46
64602;BME280;51013;42.630;23.192;2022-11-23T12:29:41;90786.63;;;11.27;60.60
64602;BME280;51013;42.630;23.192;2022-11-23T12:32:22;90826.44;;;11.39;61.14
64602;BME280;51013;42.630;23.192;2022-11-23T12:35:03;90992.44;;;12.38;61.54
64602;BME280;51013;42.630;23.192;2022-11-23T12:37:48;90955.25;;;12.08;59.55
64602;BME280;51013;42.630;23.192;2022-11-23T12:43:12;90957.09;;;12.32;58.86
64602;BME280;51013;42.630;23.192;2022-11-23T12:46:06;90983.75;;;12.49;61.07
64602;BME280;51013;42.630;23.192;2022-11-23T12:48:51;90975.88;;;12.45;59.54
64602;BME280;51013;42.630;23.192;2022-11-23T12:51:27;90825.69;;;11.32;60.34
64602;BME280;51013;42.630;23.192;2022-11-23T12:54:14;90933.09;;;11.98;60.17
64602;BME280;51013;42.630;23.192;2022-11-23T12:56:57;90784.00;;;10.94;58.88
64602;BME280;51013;42.630;23.192;2022-11-23T12:59:32;90942.09;;;11.82;59.86
64602;BME280;51013;42.630;23.192;2022-11-23T13:02:12;90995.47;;;12.08;60.61
64602;BME280;51013;42.630;23.192;2022-11-23T13:05:05;90955.66;;;11.99;59.57
64602;BME280;51013;42.630;23.192;2022-11-23T13:10:52;90895.50;;;11.69;57.79
64602;BME280;51013;42.630;23.192;2022-11-23T13:13:32;90992.78;;;12.40;58.91
64602;BME280;51013;42.630;23.192;2022-11-23T13:19:29;90952.25;;;11.88;59.77
64602;BME280;51013;42.630;23.192;2022-11-23T13:22:04;90999.97;;;12.18;60.71